sensor_id;sensor_type;location;lat;lon;timestamp;P1;durP1;ratioP1;P2;durP2;ratioP2
23658;SDS011;12006;42.666;23.326;2023-07-28T00:01:56;2.92;;;2.72;;
23658;SDS011;12006;42.666;23.326;2023-07-28T00:04:21;3.10;;;2.90;;
23658;SDS011;12006;42.666;23.326;2023-07-28T00:06:47;3.10;;;2.90;;
23658;SDS011;12006;42.666;23.326;2023-07-28T00:09:12;3.17;;;2.88;;
23658;SDS011;12006;42.666;23.326;2023-07-28T00:11:38;3.00;;;2.70;;
23658;SDS011;12006;42.666;23.326;2023-07-28T00:14:03;3.47;;;3.28;;
23658;SDS011;12006;42.666;23.326;2023-07-28T00:16:28;3.40;;;3.10;;
23658;SDS011;12006;42.666;23.326;2023-07-28T00:18:54;3.97;;;3.63;;
23658;SDS011;12006;42.666;23.326;2023-07-28T00:21:19;3.47;;;3.28;;
23658;SDS011;12006;42.666;23.326;2023-07-28T00:23:44;4.53;;;3.70;;
23658;SDS011;12006;42.666;23.326;2023-07-28T00:26:10;3.92;;;3.63;;
23658;SDS011;12006;42.666;23.326;2023-07-28T00:28:35;4.03;;;3.63;;
23658;SDS011;12006;42.666;23.326;2023-07-28T00:31:00;3.53;;;3.33;;
23658;SDS011;12006;42.666;23.326;2023-07-28T00:33:26;4.10;;;3.80;;
23658;SDS011;12006;42.666;23.326;2023-07-28T00:35:51;4.05;;;3.75;;
23658;SDS011;12006;42.666;23.326;2023-07-28T00:38:17;4.10;;;3.80;;
23658;SDS011;12006;42.666;23.326;2023-07-28T00:40:42;4.45;;;4.05;;
23658;SDS011;12006;42.666;23.326;2023-07-28T00:43:07;4.93;;;3.78;;
23658;SDS011;12006;42.666;23.326;2023-07-28T00:45:33;4.10;;;3.63;;
23658;SDS011;12006;42.666;23.326;2023-07-28T00:47:58;4.43;;;4.03;;
23658;SDS011;12006;42.666;23.326;2023-07-28T00:50:25;4.22;;;3.88;;
23658;SDS011;12006;42.666;23.326;2023-07-28T00:52:51;4.50;;;4.10;;
23658;SDS011;12006;42.666;23.326;2023-07-28T00:55:17;4.05;;;3.75;;
23658;SDS011;12006;42.666;23.326;2023-07-28T00:57:43;3.85;;;3.58;;
23658;SDS011;12006;42.666;23.326;2023-07-28T01:00:09;4.10;;;3.73;;
23658;SDS011;12006;42.666;23.326;2023-07-28T01:02:35;4.43;;;4.03;;
23658;SDS011;12006;42.666;23.326;2023-07-28T01:05:01;4.35;;;3.95;;
23658;SDS011;12006;42.666;23.326;2023-07-28T01:09:55;4.40;;;4.00;;
23658;SDS011;12006;42.666;23.326;2023-07-28T01:12:27;4.43;;;4.03;;
23658;SDS011;12006;42.666;23.326;2023-07-28T01:14:52;4.28;;;3.92;;
23658;SDS011;12006;42.666;23.326;2023-07-28T01:17:17;4.13;;;3.80;;
23658;SDS011;12006;42.666;23.326;2023-07-28T01:19:44;4.10;;;3.80;;
23658;SDS011;12006;42.666;23.326;2023-07-28T01:27:43;4.40;;;3.87;;
23658;SDS011;12006;42.666;23.326;2023-07-28T01:30:09;4.90;;;4.40;;
23658;SDS011;12006;42.666;23.326;2023-07-28T01:32:35;4.45;;;4.15;;
23658;SDS011;12006;42.666;23.326;2023-07-28T01:35:01;4.88;;;4.47;;
23658;SDS011;12006;42.666;23.326;2023-07-28T01:37:29;5.03;;;4.53;;
23658;SDS011;12006;42.666;23.326;2023-07-28T01:39:55;4.50;;;4.20;;
23658;SDS011;12006;42.666;23.326;2023-07-28T01:42:22;4.63;;;4.20;;
23658;SDS011;12006;42.666;23.326;2023-07-28T01:44:47;5.17;;;4.77;;
23658;SDS011;12006;42.666;23.326;2023-07-28T01:47:13;4.97;;;4.57;;
23658;SDS011;12006;42.666;23.326;2023-07-28T01:49:39;5.07;;;4.67;;
23658;SDS011;12006;42.666;23.326;2023-07-28T01:52:04;4.50;;;4.10;;
23658;SDS011;12006;42.666;23.326;2023-07-28T01:54:29;6.03;;;4.93;;
23658;SDS011;12006;42.666;23.326;2023-07-28T01:56:55;5.63;;;4.70;;
23658;SDS011;12006;42.666;23.326;2023-07-28T01:59:20;4.60;;;4.30;;
23658;SDS011;12006;42.666;23.326;2023-07-28T02:01:46;5.78;;;4.78;;
23658;SDS011;12006;42.666;23.326;2023-07-28T02:04:12;4.80;;;4.40;;
23658;SDS011;12006;42.666;23.326;2023-07-28T02:06:37;5.00;;;4.50;;
23658;SDS011;12006;42.666;23.326;2023-07-28T02:09:03;6.20;;;4.40;;
23658;SDS011;12006;42.666;23.326;2023-07-28T02:11:28;5.00;;;4.50;;
23658;SDS011;12006;42.666;23.326;2023-07-28T02:13:53;5.53;;;4.50;;
23658;SDS011;12006;42.666;23.326;2023-07-28T02:16:19;4.53;;;4.00;;
23658;SDS011;12006;42.666;23.326;2023-07-28T02:18:45;4.13;;;3.83;;
23658;SDS011;12006;42.666;23.326;2023-07-28T02:21:10;4.17;;;3.77;;
23658;SDS011;12006;42.666;23.326;2023-07-28T02:23:36;4.07;;;3.67;;
23658;SDS011;12006;42.666;23.326;2023-07-28T02:26:01;3.57;;;3.20;;
23658;SDS011;12006;42.666;23.326;2023-07-28T02:28:27;4.27;;;3.20;;
23658;SDS011;12006;42.666;23.326;2023-07-28T02:30:53;3.43;;;3.13;;
23658;SDS011;12006;42.666;23.326;2023-07-28T02:33:18;3.80;;;3.40;;
23658;SDS011;12006;42.666;23.326;2023-07-28T02:35:44;2.87;;;2.70;;
23658;SDS011;12006;42.666;23.326;2023-07-28T02:38:09;3.73;;;3.43;;
23658;SDS011;12006;42.666;23.326;2023-07-28T02:40:34;3.90;;;3.60;;
23658;SDS011;12006;42.666;23.326;2023-07-28T02:43:00;4.50;;;3.27;;
23658;SDS011;12006;42.666;23.326;2023-07-28T02:45:25;4.10;;;3.70;;
23658;SDS011;12006;42.666;23.326;2023-07-28T02:47:51;4.23;;;3.83;;
23658;SDS011;12006;42.666;23.326;2023-07-28T02:50:16;4.23;;;3.83;;
23658;SDS011;12006;42.666;23.326;2023-07-28T02:52:42;4.23;;;3.90;;
23658;SDS011;12006;42.666;23.326;2023-07-28T02:55:07;5.30;;;4.23;;
23658;SDS011;12006;42.666;23.326;2023-07-28T02:57:33;5.00;;;4.50;;
23658;SDS011;12006;42.666;23.326;2023-07-28T02:59:58;4.37;;;3.97;;
23658;SDS011;12006;42.666;23.326;2023-07-28T03:02:24;4.83;;;4.43;;
23658;SDS011;12006;42.666;23.326;2023-07-28T03:04:49;5.17;;;4.70;;
23658;SDS011;12006;42.666;23.326;2023-07-28T03:07:15;6.47;;;4.27;;
23658;SDS011;12006;42.666;23.326;2023-07-28T03:09:40;4.37;;;4.07;;
23658;SDS011;12006;42.666;23.326;2023-07-28T03:12:06;6.83;;;3.90;;
23658;SDS011;12006;42.666;23.326;2023-07-28T03:14:32;4.00;;;3.70;;
23658;SDS011;12006;42.666;23.326;2023-07-28T03:16:57;5.43;;;4.10;;
23658;SDS011;12006;42.666;23.326;2023-07-28T03:19:23;3.70;;;3.40;;
23658;SDS011;12006;42.666;23.326;2023-07-28T03:21:48;4.07;;;3.77;;
23658;SDS011;12006;42.666;23.326;2023-07-28T03:24:13;6.70;;;3.87;;
23658;SDS011;12006;42.666;23.326;2023-07-28T03:26:39;4.43;;;4.00;;
23658;SDS011;12006;42.666;23.326;2023-07-28T03:29:04;6.90;;;4.40;;
23658;SDS011;12006;42.666;23.326;2023-07-28T03:31:29;4.50;;;4.10;;
23658;SDS011;12006;42.666;23.326;2023-07-28T03:33:55;5.67;;;4.20;;
23658;SDS011;12006;42.666;23.326;2023-07-28T03:36:20;4.23;;;3.93;;
23658;SDS011;12006;42.666;23.326;2023-07-28T03:38:46;7.53;;;4.10;;
23658;SDS011;12006;42.666;23.326;2023-07-28T03:41:12;4.30;;;3.90;;
23658;SDS011;12006;42.666;23.326;2023-07-28T03:43:38;4.53;;;4.13;;
23658;SDS011;12006;42.666;23.326;2023-07-28T03:46:03;5.13;;;3.63;;
23658;SDS011;12006;42.666;23.326;2023-07-28T03:48:28;4.50;;;4.10;;
23658;SDS011;12006;42.666;23.326;2023-07-28T03:50:54;5.00;;;3.90;;
23658;SDS011;12006;42.666;23.326;2023-07-28T03:53:19;4.53;;;4.13;;
23658;SDS011;12006;42.666;23.326;2023-07-28T03:55:45;6.33;;;4.40;;
23658;SDS011;12006;42.666;23.326;2023-07-28T03:58:10;6.77;;;4.27;;
23658;SDS011;12006;42.666;23.326;2023-07-28T04:00:35;8.13;;;4.70;;
23658;SDS011;12006;42.666;23.326;2023-07-28T04:03:01;5.63;;;5.07;;
23658;SDS011;12006;42.666;23.326;2023-07-28T04:05:27;5.43;;;4.93;;
23658;SDS011;12006;42.666;23.326;2023-07-28T04:07:52;5.80;;;4.90;;
23658;SDS011;12006;42.666;23.326;2023-07-28T04:10:18;5.57;;;4.77;;
23658;SDS011;12006;42.666;23.326;2023-07-28T04:12:43;7.07;;;4.50;;
23658;SDS011;12006;42.666;23.326;2023-07-28T04:15:09;5.53;;;5.03;;
23658;SDS011;12006;42.666;23.326;2023-07-28T04:17:34;6.20;;;4.60;;
23658;SDS011;12006;42.666;23.326;2023-07-28T04:20:00;5.73;;;4.67;;
23658;SDS011;12006;42.666;23.326;2023-07-28T04:22:26;7.80;;;4.27;;
23658;SDS011;12006;42.666;23.326;2023-07-28T04:24:52;4.60;;;4.20;;
23658;SDS011;12006;42.666;23.326;2023-07-28T04:27:19;4.40;;;3.90;;
23658;SDS011;12006;42.666;23.326;2023-07-28T04:29:44;5.07;;;4.37;;
23658;SDS011;12006;42.666;23.326;2023-07-28T04:32:09;4.30;;;3.90;;
23658;SDS011;12006;42.666;23.326;2023-07-28T04:34:35;5.43;;;3.67;;
23658;SDS011;12006;42.666;23.326;2023-07-28T04:37:01;4.57;;;3.87;;
23658;SDS011;12006;42.666;23.326;2023-07-28T04:39:26;5.20;;;4.00;;
23658;SDS011;12006;42.666;23.326;2023-07-28T04:41:52;5.67;;;4.13;;
23658;SDS011;12006;42.666;23.326;2023-07-28T04:44:17;4.30;;;3.90;;
23658;SDS011;12006;42.666;23.326;2023-07-28T04:46:44;4.93;;;4.53;;
23658;SDS011;12006;42.666;23.326;2023-07-28T04:49:12;5.60;;;5.10;;
23658;SDS011;12006;42.666;23.326;2023-07-28T04:51:38;6.05;;;5.45;;
23658;SDS011;12006;42.666;23.326;2023-07-28T04:54:03;4.70;;;4.30;;
23658;SDS011;12006;42.666;23.326;2023-07-28T04:56:28;5.72;;;4.78;;
23658;SDS011;12006;42.666;23.326;2023-07-28T04:58:54;4.78;;;4.38;;
23658;SDS011;12006;42.666;23.326;2023-07-28T05:01:19;6.32;;;4.13;;
23658;SDS011;12006;42.666;23.326;2023-07-28T05:03:44;4.90;;;4.50;;
23658;SDS011;12006;42.666;23.326;2023-07-28T05:06:10;5.13;;;4.43;;
23658;SDS011;12006;42.666;23.326;2023-07-28T05:08:35;6.30;;;4.63;;
23658;SDS011;12006;42.666;23.326;2023-07-28T05:11:01;4.70;;;4.25;;
23658;SDS011;12006;42.666;23.326;2023-07-28T05:13:26;5.10;;;4.32;;
23658;SDS011;12006;42.666;23.326;2023-07-28T05:15:52;4.20;;;3.90;;
23658;SDS011;12006;42.666;23.326;2023-07-28T05:18:17;6.55;;;5.20;;
23658;SDS011;12006;42.666;23.326;2023-07-28T05:20:43;9.55;;;8.25;;
23658;SDS011;12006;42.666;23.326;2023-07-28T05:23:08;7.50;;;5.57;;
23658;SDS011;12006;42.666;23.326;2023-07-28T05:25:34;7.40;;;6.70;;
23658;SDS011;12006;42.666;23.326;2023-07-28T05:27:59;5.32;;;4.93;;
23658;SDS011;12006;42.666;23.326;2023-07-28T05:30:24;5.13;;;4.30;;
23658;SDS011;12006;42.666;23.326;2023-07-28T05:32:50;4.80;;;4.35;;
23658;SDS011;12006;42.666;23.326;2023-07-28T05:35:15;10.38;;;4.65;;
23658;SDS011;12006;42.666;23.326;2023-07-28T05:37:41;8.50;;;7.20;;
23658;SDS011;12006;42.666;23.326;2023-07-28T05:40:06;6.13;;;5.10;;
23658;SDS011;12006;42.666;23.326;2023-07-28T05:42:32;7.43;;;6.65;;
23658;SDS011;12006;42.666;23.326;2023-07-28T05:44:58;5.63;;;4.93;;
23658;SDS011;12006;42.666;23.326;2023-07-28T05:47:24;8.20;;;6.95;;
23658;SDS011;12006;42.666;23.326;2023-07-28T05:49:50;7.13;;;6.32;;
23658;SDS011;12006;42.666;23.326;2023-07-28T05:52:20;4.68;;;4.28;;
23658;SDS011;12006;42.666;23.326;2023-07-28T05:54:47;4.82;;;4.43;;
23658;SDS011;12006;42.666;23.326;2023-07-28T05:57:13;8.15;;;5.70;;
23658;SDS011;12006;42.666;23.326;2023-07-28T05:59:38;5.80;;;4.88;;
23658;SDS011;12006;42.666;23.326;2023-07-28T06:02:04;6.63;;;5.78;;
23658;SDS011;12006;42.666;23.326;2023-07-28T06:04:29;5.28;;;4.82;;
23658;SDS011;12006;42.666;23.326;2023-07-28T06:06:55;6.18;;;4.63;;
23658;SDS011;12006;42.666;23.326;2023-07-28T06:09:20;8.23;;;6.57;;
23658;SDS011;12006;42.666;23.326;2023-07-28T06:11:45;7.78;;;5.32;;
23658;SDS011;12006;42.666;23.326;2023-07-28T06:14:11;5.90;;;4.72;;
23658;SDS011;12006;42.666;23.326;2023-07-28T06:16:36;5.88;;;4.95;;
23658;SDS011;12006;42.666;23.326;2023-07-28T06:19:02;4.60;;;4.20;;
23658;SDS011;12006;42.666;23.326;2023-07-28T06:21:29;7.53;;;4.18;;
23658;SDS011;12006;42.666;23.326;2023-07-28T06:23:54;11.02;;;8.02;;
23658;SDS011;12006;42.666;23.326;2023-07-28T06:26:20;7.45;;;4.85;;
23658;SDS011;12006;42.666;23.326;2023-07-28T06:28:45;5.43;;;4.93;;
23658;SDS011;12006;42.666;23.326;2023-07-28T06:31:11;6.63;;;5.30;;
23658;SDS011;12006;42.666;23.326;2023-07-28T06:33:36;6.32;;;5.70;;
23658;SDS011;12006;42.666;23.326;2023-07-28T06:36:02;7.20;;;6.50;;
23658;SDS011;12006;42.666;23.326;2023-07-28T06:38:28;6.07;;;5.47;;
23658;SDS011;12006;42.666;23.326;2023-07-28T06:40:53;10.05;;;9.05;;
23658;SDS011;12006;42.666;23.326;2023-07-28T06:43:19;16.80;;;13.20;;
23658;SDS011;12006;42.666;23.326;2023-07-28T06:45:44;18.38;;;13.73;;
23658;SDS011;12006;42.666;23.326;2023-07-28T06:48:10;8.80;;;6.80;;
23658;SDS011;12006;42.666;23.326;2023-07-28T06:50:35;6.57;;;5.93;;
23658;SDS011;12006;42.666;23.326;2023-07-28T06:53:01;6.30;;;5.50;;
23658;SDS011;12006;42.666;23.326;2023-07-28T06:55:26;5.90;;;4.85;;
23658;SDS011;12006;42.666;23.326;2023-07-28T06:57:52;4.63;;;4.20;;
23658;SDS011;12006;42.666;23.326;2023-07-28T07:00:17;5.93;;;4.70;;
23658;SDS011;12006;42.666;23.326;2023-07-28T07:02:43;5.15;;;4.68;;
23658;SDS011;12006;42.666;23.326;2023-07-28T07:05:08;5.45;;;4.70;;
23658;SDS011;12006;42.666;23.326;2023-07-28T07:07:34;4.43;;;3.78;;
23658;SDS011;12006;42.666;23.326;2023-07-28T07:09:59;5.65;;;4.55;;
23658;SDS011;12006;42.666;23.326;2023-07-28T07:12:25;6.05;;;5.50;;
23658;SDS011;12006;42.666;23.326;2023-07-28T07:14:50;11.20;;;4.72;;
23658;SDS011;12006;42.666;23.326;2023-07-28T07:17:16;12.98;;;8.55;;
23658;SDS011;12006;42.666;23.326;2023-07-28T07:19:41;4.88;;;3.92;;
23658;SDS011;12006;42.666;23.326;2023-07-28T07:22:06;4.38;;;3.92;;
23658;SDS011;12006;42.666;23.326;2023-07-28T07:24:32;10.75;;;4.55;;
23658;SDS011;12006;42.666;23.326;2023-07-28T07:26:57;4.82;;;4.00;;
23658;SDS011;12006;42.666;23.326;2023-07-28T07:29:23;5.18;;;3.67;;
23658;SDS011;12006;42.666;23.326;2023-07-28T07:31:49;14.80;;;4.75;;
23658;SDS011;12006;42.666;23.326;2023-07-28T07:34:19;20.67;;;4.93;;
23658;SDS011;12006;42.666;23.326;2023-07-28T07:36:45;11.55;;;3.95;;
23658;SDS011;12006;42.666;23.326;2023-07-28T07:39:10;6.65;;;3.50;;
23658;SDS011;12006;42.666;23.326;2023-07-28T07:41:36;3.78;;;3.25;;
23658;SDS011;12006;42.666;23.326;2023-07-28T07:44:01;10.20;;;6.43;;
23658;SDS011;12006;42.666;23.326;2023-07-28T07:46:27;3.78;;;3.47;;
23658;SDS011;12006;42.666;23.326;2023-07-28T07:48:53;4.53;;;3.42;;
23658;SDS011;12006;42.666;23.326;2023-07-28T07:51:18;3.17;;;2.97;;
23658;SDS011;12006;42.666;23.326;2023-07-28T07:53:43;4.30;;;3.25;;
23658;SDS011;12006;42.666;23.326;2023-07-28T07:56:09;4.10;;;3.80;;
23658;SDS011;12006;42.666;23.326;2023-07-28T07:58:35;4.45;;;3.33;;
23658;SDS011;12006;42.666;23.326;2023-07-28T08:01:00;3.40;;;3.03;;
23658;SDS011;12006;42.666;23.326;2023-07-28T08:03:26;3.60;;;3.25;;
23658;SDS011;12006;42.666;23.326;2023-07-28T08:05:52;4.38;;;3.50;;
23658;SDS011;12006;42.666;23.326;2023-07-28T08:08:18;3.88;;;3.20;;
23658;SDS011;12006;42.666;23.326;2023-07-28T08:10:45;4.25;;;3.70;;
23658;SDS011;12006;42.666;23.326;2023-07-28T08:13:17;3.50;;;3.20;;
23658;SDS011;12006;42.666;23.326;2023-07-28T08:15:42;4.22;;;3.10;;
23658;SDS011;12006;42.666;23.326;2023-07-28T08:18:08;3.92;;;3.42;;
23658;SDS011;12006;42.666;23.326;2023-07-28T08:20:34;3.20;;;2.72;;
23658;SDS011;12006;42.666;23.326;2023-07-28T08:22:59;4.78;;;4.28;;
23658;SDS011;12006;42.666;23.326;2023-07-28T08:25:24;5.60;;;4.43;;
23658;SDS011;12006;42.666;23.326;2023-07-28T08:27:50;5.15;;;4.45;;
23658;SDS011;12006;42.666;23.326;2023-07-28T08:30:15;4.00;;;2.90;;
23658;SDS011;12006;42.666;23.326;2023-07-28T08:32:41;5.00;;;3.97;;
23658;SDS011;12006;42.666;23.326;2023-07-28T08:35:08;3.30;;;3.05;;
23658;SDS011;12006;42.666;23.326;2023-07-28T08:37:33;3.45;;;3.03;;
23658;SDS011;12006;42.666;23.326;2023-07-28T08:39:59;3.88;;;2.80;;
23658;SDS011;12006;42.666;23.326;2023-07-28T08:42:24;4.97;;;3.85;;
23658;SDS011;12006;42.666;23.326;2023-07-28T08:44:50;4.18;;;3.20;;
23658;SDS011;12006;42.666;23.326;2023-07-28T08:47:17;3.22;;;2.92;;
23658;SDS011;12006;42.666;23.326;2023-07-28T08:49:43;2.97;;;2.78;;
23658;SDS011;12006;42.666;23.326;2023-07-28T08:52:09;3.00;;;2.80;;
23658;SDS011;12006;42.666;23.326;2023-07-28T08:54:35;4.45;;;3.92;;
23658;SDS011;12006;42.666;23.326;2023-07-28T08:57:00;3.42;;;3.10;;
23658;SDS011;12006;42.666;23.326;2023-07-28T08:59:26;2.97;;;2.63;;
23658;SDS011;12006;42.666;23.326;2023-07-28T09:01:53;3.83;;;3.50;;
23658;SDS011;12006;42.666;23.326;2023-07-28T09:04:21;3.30;;;3.00;;
23658;SDS011;12006;42.666;23.326;2023-07-28T09:06:47;3.00;;;2.80;;
23658;SDS011;12006;42.666;23.326;2023-07-28T09:09:14;3.17;;;2.75;;
23658;SDS011;12006;42.666;23.326;2023-07-28T09:11:43;3.20;;;2.90;;
23658;SDS011;12006;42.666;23.326;2023-07-28T09:14:13;2.92;;;2.58;;
23658;SDS011;12006;42.666;23.326;2023-07-28T09:16:41;3.47;;;2.65;;
23658;SDS011;12006;42.666;23.326;2023-07-28T09:19:08;2.90;;;2.70;;
23658;SDS011;12006;42.666;23.326;2023-07-28T09:21:34;3.38;;;3.13;;
23658;SDS011;12006;42.666;23.326;2023-07-28T09:24:00;3.83;;;3.53;;
23658;SDS011;12006;42.666;23.326;2023-07-28T09:26:44;3.10;;;2.58;;
23658;SDS011;12006;42.666;23.326;2023-07-28T09:29:14;3.35;;;2.40;;
23658;SDS011;12006;42.666;23.326;2023-07-28T09:31:46;4.78;;;3.28;;
23658;SDS011;12006;42.666;23.326;2023-07-28T09:34:22;3.10;;;2.90;;
23658;SDS011;12006;42.666;23.326;2023-07-28T09:36:51;3.65;;;3.35;;
23658;SDS011;12006;42.666;23.326;2023-07-28T09:39:18;3.25;;;2.60;;
23658;SDS011;12006;42.666;23.326;2023-07-28T09:41:45;3.05;;;2.60;;
23658;SDS011;12006;42.666;23.326;2023-07-28T09:44:11;3.33;;;2.50;;
23658;SDS011;12006;42.666;23.326;2023-07-28T09:46:37;3.28;;;2.67;;
23658;SDS011;12006;42.666;23.326;2023-07-28T09:49:19;3.72;;;2.25;;
23658;SDS011;12006;42.666;23.326;2023-07-28T09:51:48;2.63;;;2.42;;
23658;SDS011;12006;42.666;23.326;2023-07-28T09:54:20;2.95;;;2.53;;
23658;SDS011;12006;42.666;23.326;2023-07-28T09:56:53;2.67;;;2.47;;
23658;SDS011;12006;42.666;23.326;2023-07-28T09:59:21;4.88;;;2.50;;
23658;SDS011;12006;42.666;23.326;2023-07-28T10:01:53;2.15;;;1.90;;
23658;SDS011;12006;42.666;23.326;2023-07-28T10:04:19;3.03;;;2.72;;
23658;SDS011;12006;42.666;23.326;2023-07-28T10:06:46;2.90;;;2.70;;
23658;SDS011;12006;42.666;23.326;2023-07-28T10:09:12;2.88;;;2.45;;
23658;SDS011;12006;42.666;23.326;2023-07-28T10:11:41;4.78;;;2.60;;
23658;SDS011;12006;42.666;23.326;2023-07-28T10:14:07;3.33;;;2.75;;
23658;SDS011;12006;42.666;23.326;2023-07-28T10:16:39;2.78;;;2.50;;
23658;SDS011;12006;42.666;23.326;2023-07-28T10:19:05;2.60;;;2.35;;
23658;SDS011;12006;42.666;23.326;2023-07-28T10:21:31;2.58;;;2.38;;
23658;SDS011;12006;42.666;23.326;2023-07-28T10:24:03;2.97;;;2.78;;
23658;SDS011;12006;42.666;23.326;2023-07-28T10:26:38;2.90;;;2.47;;
23658;SDS011;12006;42.666;23.326;2023-07-28T10:31:35;4.40;;;4.00;;
23658;SDS011;12006;42.666;23.326;2023-07-28T10:34:01;2.38;;;2.17;;
23658;SDS011;12006;42.666;23.326;2023-07-28T10:39:02;5.43;;;4.93;;
23658;SDS011;12006;42.666;23.326;2023-07-28T10:41:38;2.85;;;2.65;;
23658;SDS011;12006;42.666;23.326;2023-07-28T10:44:03;4.70;;;2.75;;
23658;SDS011;12006;42.666;23.326;2023-07-28T10:46:30;4.28;;;3.60;;
23658;SDS011;12006;42.666;23.326;2023-07-28T10:49:03;11.85;;;10.65;;
23658;SDS011;12006;42.666;23.326;2023-07-28T10:51:30;5.28;;;3.30;;
23658;SDS011;12006;42.666;23.326;2023-07-28T10:53:58;2.88;;;2.67;;
23658;SDS011;12006;42.666;23.326;2023-07-28T10:56:24;3.42;;;2.50;;
23658;SDS011;12006;42.666;23.326;2023-07-28T10:59:00;5.55;;;2.50;;
23658;SDS011;12006;42.666;23.326;2023-07-28T11:01:44;3.80;;;2.47;;
23658;SDS011;12006;42.666;23.326;2023-07-28T11:04:11;4.63;;;4.18;;
23658;SDS011;12006;42.666;23.326;2023-07-28T11:06:40;4.88;;;3.55;;
23658;SDS011;12006;42.666;23.326;2023-07-28T11:09:10;4.50;;;4.10;;
23658;SDS011;12006;42.666;23.326;2023-07-28T11:11:37;3.38;;;3.00;;
23658;SDS011;12006;42.666;23.326;2023-07-28T11:14:04;5.97;;;5.38;;
23658;SDS011;12006;42.666;23.326;2023-07-28T11:16:32;2.53;;;2.33;;
23658;SDS011;12006;42.666;23.326;2023-07-28T11:19:07;2.40;;;2.20;;
23658;SDS011;12006;42.666;23.326;2023-07-28T11:21:40;2.80;;;2.30;;
23658;SDS011;12006;42.666;23.326;2023-07-28T11:24:07;3.40;;;3.10;;
23658;SDS011;12006;42.666;23.326;2023-07-28T11:26:37;3.05;;;2.72;;
23658;SDS011;12006;42.666;23.326;2023-07-28T11:29:04;2.78;;;2.58;;
23658;SDS011;12006;42.666;23.326;2023-07-28T11:31:30;3.00;;;2.60;;
23658;SDS011;12006;42.666;23.326;2023-07-28T11:33:56;2.35;;;2.15;;
23658;SDS011;12006;42.666;23.326;2023-07-28T11:36:24;2.40;;;2.20;;
23658;SDS011;12006;42.666;23.326;2023-07-28T11:38:53;2.20;;;2.00;;
23658;SDS011;12006;42.666;23.326;2023-07-28T11:41:20;3.35;;;2.45;;
23658;SDS011;12006;42.666;23.326;2023-07-28T11:43:48;2.22;;;2.03;;
23658;SDS011;12006;42.666;23.326;2023-07-28T11:49:16;2.40;;;2.20;;
23658;SDS011;12006;42.666;23.326;2023-07-28T11:51:48;4.57;;;2.45;;
23658;SDS011;12006;42.666;23.326;2023-07-28T11:54:16;2.00;;;1.90;;
23658;SDS011;12006;42.666;23.326;2023-07-28T11:56:45;2.28;;;2.08;;
23658;SDS011;12006;42.666;23.326;2023-07-28T11:59:11;2.20;;;2.00;;
23658;SDS011;12006;42.666;23.326;2023-07-28T12:01:55;3.63;;;2.35;;
23658;SDS011;12006;42.666;23.326;2023-07-28T12:04:25;2.80;;;2.30;;
23658;SDS011;12006;42.666;23.326;2023-07-28T12:07:14;2.78;;;2.10;;
23658;SDS011;12006;42.666;23.326;2023-07-28T12:12:25;3.55;;;2.92;;
23658;SDS011;12006;42.666;23.326;2023-07-28T12:14:51;2.20;;;2.08;;
23658;SDS011;12006;42.666;23.326;2023-07-28T12:17:18;2.55;;;2.38;;
23658;SDS011;12006;42.666;23.326;2023-07-28T12:22:35;10.80;;;9.73;;
23658;SDS011;12006;42.666;23.326;2023-07-28T12:25:01;4.40;;;4.00;;
23658;SDS011;12006;42.666;23.326;2023-07-28T12:27:27;3.45;;;2.47;;
23658;SDS011;12006;42.666;23.326;2023-07-28T12:29:52;2.75;;;2.53;;
23658;SDS011;12006;42.666;23.326;2023-07-28T12:32:18;4.25;;;3.95;;
23658;SDS011;12006;42.666;23.326;2023-07-28T12:34:44;3.90;;;3.22;;
23658;SDS011;12006;42.666;23.326;2023-07-28T12:37:09;4.47;;;4.07;;
23658;SDS011;12006;42.666;23.326;2023-07-28T12:39:36;2.17;;;2.00;;
23658;SDS011;12006;42.666;23.326;2023-07-28T12:42:04;2.33;;;2.13;;
23658;SDS011;12006;42.666;23.326;2023-07-28T12:44:34;2.00;;;1.90;;
23658;SDS011;12006;42.666;23.326;2023-07-28T12:47:00;2.42;;;2.22;;
23658;SDS011;12006;42.666;23.326;2023-07-28T12:49:26;2.60;;;2.40;;
23658;SDS011;12006;42.666;23.326;2023-07-28T12:51:53;2.75;;;2.40;;
23658;SDS011;12006;42.666;23.326;2023-07-28T12:54:18;3.50;;;3.20;;
23658;SDS011;12006;42.666;23.326;2023-07-28T12:56:44;2.35;;;2.15;;
23658;SDS011;12006;42.666;23.326;2023-07-28T12:59:11;2.22;;;2.03;;
23658;SDS011;12006;42.666;23.326;2023-07-28T13:01:37;2.40;;;2.20;;
23658;SDS011;12006;42.666;23.326;2023-07-28T13:04:02;2.92;;;2.22;;
23658;SDS011;12006;42.666;23.326;2023-07-28T13:06:28;2.30;;;2.10;;
23658;SDS011;12006;42.666;23.326;2023-07-28T13:08:53;2.50;;;2.30;;
23658;SDS011;12006;42.666;23.326;2023-07-28T13:11:19;2.13;;;1.98;;
23658;SDS011;12006;42.666;23.326;2023-07-28T13:13:44;2.08;;;1.92;;
23658;SDS011;12006;42.666;23.326;2023-07-28T13:16:09;2.65;;;2.45;;
23658;SDS011;12006;42.666;23.326;2023-07-28T13:18:35;1.92;;;1.83;;
23658;SDS011;12006;42.666;23.326;2023-07-28T13:21:00;2.28;;;2.17;;
23658;SDS011;12006;42.666;23.326;2023-07-28T13:23:26;1.75;;;1.65;;
23658;SDS011;12006;42.666;23.326;2023-07-28T13:25:51;2.00;;;1.90;;
23658;SDS011;12006;42.666;23.326;2023-07-28T13:28:17;2.00;;;1.80;;
23658;SDS011;12006;42.666;23.326;2023-07-28T13:30:43;2.28;;;2.08;;
23658;SDS011;12006;42.666;23.326;2023-07-28T13:33:08;2.45;;;2.25;;
23658;SDS011;12006;42.666;23.326;2023-07-28T13:35:34;2.25;;;1.85;;
23658;SDS011;12006;42.666;23.326;2023-07-28T13:37:59;2.33;;;2.13;;
23658;SDS011;12006;42.666;23.326;2023-07-28T13:40:25;2.33;;;2.22;;
23658;SDS011;12006;42.666;23.326;2023-07-28T13:42:50;2.22;;;2.13;;
23658;SDS011;12006;42.666;23.326;2023-07-28T13:45:15;2.40;;;2.20;;
23658;SDS011;12006;42.666;23.326;2023-07-28T13:47:41;2.30;;;2.20;;
23658;SDS011;12006;42.666;23.326;2023-07-28T13:50:06;2.47;;;2.00;;
23658;SDS011;12006;42.666;23.326;2023-07-28T13:52:32;2.20;;;2.00;;
23658;SDS011;12006;42.666;23.326;2023-07-28T13:54:57;2.17;;;2.00;;
23658;SDS011;12006;42.666;23.326;2023-07-28T13:57:23;2.53;;;2.33;;
23658;SDS011;12006;42.666;23.326;2023-07-28T13:59:49;2.20;;;2.10;;
23658;SDS011;12006;42.666;23.326;2023-07-28T14:02:16;2.70;;;2.50;;
23658;SDS011;12006;42.666;23.326;2023-07-28T14:04:42;2.00;;;1.90;;
23658;SDS011;12006;42.666;23.326;2023-07-28T14:07:08;2.03;;;1.90;;
23658;SDS011;12006;42.666;23.326;2023-07-28T14:09:33;4.38;;;3.97;;
23658;SDS011;12006;42.666;23.326;2023-07-28T14:11:59;2.10;;;2.00;;
23658;SDS011;12006;42.666;23.326;2023-07-28T14:14:24;2.10;;;2.00;;
23658;SDS011;12006;42.666;23.326;2023-07-28T14:16:49;2.22;;;2.05;;
23658;SDS011;12006;42.666;23.326;2023-07-28T14:19:15;1.85;;;1.75;;
23658;SDS011;12006;42.666;23.326;2023-07-28T14:21:40;2.85;;;2.55;;
23658;SDS011;12006;42.666;23.326;2023-07-28T14:24:06;2.72;;;2.53;;
23658;SDS011;12006;42.666;23.326;2023-07-28T14:26:31;4.75;;;4.35;;
23658;SDS011;12006;42.666;23.326;2023-07-28T14:28:56;2.40;;;2.20;;
23658;SDS011;12006;42.666;23.326;2023-07-28T14:31:22;2.47;;;2.28;;
23658;SDS011;12006;42.666;23.326;2023-07-28T14:33:47;6.35;;;5.75;;
23658;SDS011;12006;42.666;23.326;2023-07-28T14:36:12;2.50;;;2.30;;
23658;SDS011;12006;42.666;23.326;2023-07-28T14:38:38;2.38;;;2.17;;
23658;SDS011;12006;42.666;23.326;2023-07-28T14:41:04;2.50;;;2.30;;
23658;SDS011;12006;42.666;23.326;2023-07-28T14:43:29;2.35;;;2.15;;
23658;SDS011;12006;42.666;23.326;2023-07-28T14:45:54;2.15;;;2.05;;
23658;SDS011;12006;42.666;23.326;2023-07-28T14:48:20;2.10;;;2.00;;
23658;SDS011;12006;42.666;23.326;2023-07-28T14:50:46;8.48;;;7.63;;